sensor_id;sensor_type;location;lat;lon;timestamp;P1;durP1;ratioP1;P2;durP2;ratioP2
75537;SDS011;64121;48.666;8.114;2023-07-24T00:00:07;8.40;;;5.23;;
75537;SDS011;64121;48.666;8.114;2023-07-24T00:02:33;8.80;;;4.85;;
75537;SDS011;64121;48.666;8.114;2023-07-24T00:04:58;6.57;;;4.43;;
75537;SDS011;64121;48.666;8.114;2023-07-24T00:07:23;10.40;;;5.67;;
75537;SDS011;64121;48.666;8.114;2023-07-24T00:09:48;8.23;;;5.60;;
75537;SDS011;64121;48.666;8.114;2023-07-24T00:12:13;9.00;;;5.27;;
75537;SDS011;64121;48.666;8.114;2023-07-24T00:14:38;8.23;;;5.27;;
75537;SDS011;64121;48.666;8.114;2023-07-24T00:17:05;9.13;;;5.10;;
75537;SDS011;64121;48.666;8.114;2023-07-24T00:19:30;7.22;;;4.90;;
75537;SDS011;64121;48.666;8.114;2023-07-24T00:21:55;7.90;;;4.43;;
75537;SDS011;64121;48.666;8.114;2023-07-24T00:24:21;8.70;;;5.23;;
75537;SDS011;64121;48.666;8.114;2023-07-24T00:26:46;7.60;;;4.97;;
75537;SDS011;64121;48.666;8.114;2023-07-24T00:29:11;9.93;;;5.30;;
75537;SDS011;64121;48.666;8.114;2023-07-24T00:31:36;7.50;;;5.27;;
75537;SDS011;64121;48.666;8.114;2023-07-24T00:34:03;7.43;;;5.17;;
75537;SDS011;64121;48.666;8.114;2023-07-24T00:36:28;8.25;;;4.90;;
75537;SDS011;64121;48.666;8.114;2023-07-24T00:38:53;8.13;;;4.47;;
75537;SDS011;64121;48.666;8.114;2023-07-24T00:41:18;7.17;;;4.67;;
75537;SDS011;64121;48.666;8.114;2023-07-24T00:43:43;8.50;;;5.47;;
75537;SDS011;64121;48.666;8.114;2023-07-24T00:46:09;8.73;;;5.70;;
75537;SDS011;64121;48.666;8.114;2023-07-24T00:48:34;8.65;;;5.20;;
75537;SDS011;64121;48.666;8.114;2023-07-24T00:51:01;7.13;;;5.18;;
75537;SDS011;64121;48.666;8.114;2023-07-24T00:53:26;8.65;;;5.47;;
75537;SDS011;64121;48.666;8.114;2023-07-24T00:55:51;8.63;;;4.97;;
75537;SDS011;64121;48.666;8.114;2023-07-24T00:58:17;7.97;;;4.90;;
75537;SDS011;64121;48.666;8.114;2023-07-24T01:00:42;9.30;;;5.37;;
75537;SDS011;64121;48.666;8.114;2023-07-24T01:03:07;9.85;;;5.90;;
75537;SDS011;64121;48.666;8.114;2023-07-24T01:05:32;7.47;;;4.90;;
75537;SDS011;64121;48.666;8.114;2023-07-24T01:07:59;8.00;;;4.37;;
75537;SDS011;64121;48.666;8.114;2023-07-24T01:10:24;8.05;;;5.88;;
75537;SDS011;64121;48.666;8.114;2023-07-24T01:12:51;7.57;;;5.40;;
75537;SDS011;64121;48.666;8.114;2023-07-24T01:15:19;8.63;;;5.13;;
75537;SDS011;64121;48.666;8.114;2023-07-24T01:17:45;8.50;;;5.57;;
75537;SDS011;64121;48.666;8.114;2023-07-24T01:20:12;8.45;;;5.07;;
75537;SDS011;64121;48.666;8.114;2023-07-24T01:22:38;10.13;;;5.63;;
75537;SDS011;64121;48.666;8.114;2023-07-24T01:25:09;8.60;;;5.78;;
75537;SDS011;64121;48.666;8.114;2023-07-24T01:27:36;7.75;;;4.78;;
75537;SDS011;64121;48.666;8.114;2023-07-24T01:30:05;9.88;;;5.72;;
75537;SDS011;64121;48.666;8.114;2023-07-24T01:32:30;7.93;;;5.72;;
75537;SDS011;64121;48.666;8.114;2023-07-24T01:34:55;7.70;;;5.13;;
75537;SDS011;64121;48.666;8.114;2023-07-24T01:37:21;10.27;;;5.40;;
75537;SDS011;64121;48.666;8.114;2023-07-24T01:39:47;8.52;;;5.55;;
75537;SDS011;64121;48.666;8.114;2023-07-24T01:42:12;8.88;;;5.53;;
75537;SDS011;64121;48.666;8.114;2023-07-24T01:44:39;8.23;;;5.15;;
75537;SDS011;64121;48.666;8.114;2023-07-24T01:47:04;7.18;;;5.00;;
75537;SDS011;64121;48.666;8.114;2023-07-24T01:49:29;8.30;;;5.17;;
75537;SDS011;64121;48.666;8.114;2023-07-24T01:51:55;7.50;;;4.93;;
75537;SDS011;64121;48.666;8.114;2023-07-24T01:54:20;8.37;;;5.90;;
75537;SDS011;64121;48.666;8.114;2023-07-24T01:56:45;9.33;;;5.47;;
75537;SDS011;64121;48.666;8.114;2023-07-24T01:59:10;8.93;;;6.03;;
75537;SDS011;64121;48.666;8.114;2023-07-24T02:01:37;7.70;;;5.10;;
75537;SDS011;64121;48.666;8.114;2023-07-24T02:04:02;8.05;;;5.25;;
75537;SDS011;64121;48.666;8.114;2023-07-24T02:06:27;10.63;;;5.97;;
75537;SDS011;64121;48.666;8.114;2023-07-24T02:08:52;8.53;;;5.70;;
75537;SDS011;64121;48.666;8.114;2023-07-24T02:11:18;8.70;;;5.70;;
75537;SDS011;64121;48.666;8.114;2023-07-24T02:13:43;8.33;;;5.33;;
75537;SDS011;64121;48.666;8.114;2023-07-24T02:16:08;10.57;;;5.38;;
75537;SDS011;64121;48.666;8.114;2023-07-24T02:18:35;8.00;;;5.07;;
75537;SDS011;64121;48.666;8.114;2023-07-24T02:21:00;10.18;;;5.93;;
75537;SDS011;64121;48.666;8.114;2023-07-24T02:23:25;9.13;;;5.73;;
75537;SDS011;64121;48.666;8.114;2023-07-24T02:25:50;8.23;;;5.90;;
75537;SDS011;64121;48.666;8.114;2023-07-24T02:28:15;8.13;;;5.63;;
75537;SDS011;64121;48.666;8.114;2023-07-24T02:30:41;9.37;;;6.13;;
75537;SDS011;64121;48.666;8.114;2023-07-24T02:33:06;10.33;;;6.20;;
75537;SDS011;64121;48.666;8.114;2023-07-24T02:35:37;8.73;;;6.07;;
75537;SDS011;64121;48.666;8.114;2023-07-24T02:38:02;9.48;;;5.75;;
75537;SDS011;64121;48.666;8.114;2023-07-24T02:40:27;9.53;;;6.13;;
75537;SDS011;64121;48.666;8.114;2023-07-24T02:42:53;9.57;;;6.23;;
75537;SDS011;64121;48.666;8.114;2023-07-24T02:45:18;10.07;;;5.87;;
75537;SDS011;64121;48.666;8.114;2023-07-24T02:47:43;8.77;;;5.53;;
75537;SDS011;64121;48.666;8.114;2023-07-24T02:50:08;8.50;;;5.93;;
75537;SDS011;64121;48.666;8.114;2023-07-24T02:52:35;8.68;;;5.72;;
75537;SDS011;64121;48.666;8.114;2023-07-24T02:55:00;8.90;;;5.80;;
75537;SDS011;64121;48.666;8.114;2023-07-24T02:57:25;8.93;;;5.37;;
75537;SDS011;64121;48.666;8.114;2023-07-24T02:59:50;8.43;;;5.70;;
75537;SDS011;64121;48.666;8.114;2023-07-24T03:02:15;10.57;;;6.40;;
75537;SDS011;64121;48.666;8.114;2023-07-24T03:04:41;8.97;;;6.23;;
75537;SDS011;64121;48.666;8.114;2023-07-24T03:07:06;12.00;;;6.30;;
75537;SDS011;64121;48.666;8.114;2023-07-24T03:09:32;8.40;;;5.33;;
75537;SDS011;64121;48.666;8.114;2023-07-24T03:11:57;8.07;;;5.35;;
75537;SDS011;64121;48.666;8.114;2023-07-24T03:14:23;9.17;;;6.47;;
75537;SDS011;64121;48.666;8.114;2023-07-24T03:16:48;9.13;;;5.97;;
75537;SDS011;64121;48.666;8.114;2023-07-24T03:19:13;9.13;;;6.30;;
75537;SDS011;64121;48.666;8.114;2023-07-24T03:21:38;9.90;;;6.07;;
75537;SDS011;64121;48.666;8.114;2023-07-24T03:24:03;8.93;;;5.77;;
75537;SDS011;64121;48.666;8.114;2023-07-24T03:26:30;12.95;;;6.45;;
75537;SDS011;64121;48.666;8.114;2023-07-24T03:28:55;10.45;;;6.22;;
75537;SDS011;64121;48.666;8.114;2023-07-24T03:31:20;9.37;;;6.30;;
75537;SDS011;64121;48.666;8.114;2023-07-24T03:33:46;9.23;;;6.47;;
75537;SDS011;64121;48.666;8.114;2023-07-24T03:36:11;8.80;;;5.23;;
75537;SDS011;64121;48.666;8.114;2023-07-24T03:38:36;10.73;;;6.17;;
75537;SDS011;64121;48.666;8.114;2023-07-24T03:41:01;9.63;;;5.57;;
75537;SDS011;64121;48.666;8.114;2023-07-24T03:43:27;9.60;;;6.03;;
75537;SDS011;64121;48.666;8.114;2023-07-24T03:45:53;8.98;;;5.20;;
75537;SDS011;64121;48.666;8.114;2023-07-24T03:48:18;8.63;;;5.73;;
75537;SDS011;64121;48.666;8.114;2023-07-24T03:50:43;8.93;;;5.83;;
75537;SDS011;64121;48.666;8.114;2023-07-24T03:53:08;7.90;;;5.40;;
75537;SDS011;64121;48.666;8.114;2023-07-24T03:55:33;8.40;;;5.33;;
75537;SDS011;64121;48.666;8.114;2023-07-24T03:57:58;10.97;;;6.30;;
75537;SDS011;64121;48.666;8.114;2023-07-24T04:00:25;8.93;;;5.87;;
75537;SDS011;64121;48.666;8.114;2023-07-24T04:02:50;7.85;;;5.60;;
75537;SDS011;64121;48.666;8.114;2023-07-24T04:05:15;10.17;;;6.13;;
75537;SDS011;64121;48.666;8.114;2023-07-24T04:07:41;9.10;;;5.70;;
75537;SDS011;64121;48.666;8.114;2023-07-24T04:10:06;9.10;;;5.93;;
75537;SDS011;64121;48.666;8.114;2023-07-24T04:12:32;8.90;;;6.13;;
75537;SDS011;64121;48.666;8.114;2023-07-24T04:14:57;9.13;;;5.63;;
75537;SDS011;64121;48.666;8.114;2023-07-24T04:17:23;10.43;;;5.90;;
75537;SDS011;64121;48.666;8.114;2023-07-24T04:19:49;8.73;;;5.47;;
75537;SDS011;64121;48.666;8.114;2023-07-24T04:22:14;10.70;;;6.30;;
75537;SDS011;64121;48.666;8.114;2023-07-24T04:24:39;8.90;;;5.83;;
75537;SDS011;64121;48.666;8.114;2023-07-24T04:27:04;10.97;;;6.43;;
75537;SDS011;64121;48.666;8.114;2023-07-24T04:29:29;9.73;;;5.90;;
75537;SDS011;64121;48.666;8.114;2023-07-24T04:31:55;9.73;;;6.57;;
75537;SDS011;64121;48.666;8.114;2023-07-24T04:34:21;9.40;;;6.67;;
75537;SDS011;64121;48.666;8.114;2023-07-24T04:36:46;9.82;;;5.97;;
75537;SDS011;64121;48.666;8.114;2023-07-24T04:39:11;10.40;;;6.20;;
75537;SDS011;64121;48.666;8.114;2023-07-24T04:41:37;7.57;;;5.00;;
75537;SDS011;64121;48.666;8.114;2023-07-24T04:44:02;10.17;;;5.50;;
75537;SDS011;64121;48.666;8.114;2023-07-24T04:46:27;8.02;;;5.40;;
75537;SDS011;64121;48.666;8.114;2023-07-24T04:48:52;10.33;;;6.03;;
75537;SDS011;64121;48.666;8.114;2023-07-24T04:51:19;8.13;;;5.77;;
75537;SDS011;64121;48.666;8.114;2023-07-24T04:53:44;8.55;;;5.28;;
75537;SDS011;64121;48.666;8.114;2023-07-24T04:56:09;8.70;;;5.73;;
75537;SDS011;64121;48.666;8.114;2023-07-24T04:58:34;10.07;;;6.37;;
75537;SDS011;64121;48.666;8.114;2023-07-24T05:01:01;8.33;;;5.67;;
75537;SDS011;64121;48.666;8.114;2023-07-24T05:03:27;9.55;;;5.60;;
75537;SDS011;64121;48.666;8.114;2023-07-24T05:05:53;10.97;;;6.30;;
75537;SDS011;64121;48.666;8.114;2023-07-24T05:08:20;8.30;;;6.20;;
75537;SDS011;64121;48.666;8.114;2023-07-24T05:10:45;10.52;;;6.00;;
75537;SDS011;64121;48.666;8.114;2023-07-24T05:13:10;11.40;;;6.53;;
75537;SDS011;64121;48.666;8.114;2023-07-24T05:15:35;10.60;;;6.63;;
75537;SDS011;64121;48.666;8.114;2023-07-24T05:18:01;8.93;;;6.23;;
75537;SDS011;64121;48.666;8.114;2023-07-24T05:20:26;10.00;;;5.93;;
75537;SDS011;64121;48.666;8.114;2023-07-24T05:22:51;10.10;;;5.80;;
75537;SDS011;64121;48.666;8.114;2023-07-24T05:25:17;9.73;;;6.37;;
75537;SDS011;64121;48.666;8.114;2023-07-24T05:27:43;8.32;;;5.95;;
75537;SDS011;64121;48.666;8.114;2023-07-24T05:30:08;8.37;;;6.00;;
75537;SDS011;64121;48.666;8.114;2023-07-24T05:32:33;9.93;;;5.95;;
75537;SDS011;64121;48.666;8.114;2023-07-24T05:34:58;9.63;;;6.60;;
75537;SDS011;64121;48.666;8.114;2023-07-24T05:37:23;8.60;;;6.20;;
75537;SDS011;64121;48.666;8.114;2023-07-24T05:39:48;10.00;;;6.57;;
75537;SDS011;64121;48.666;8.114;2023-07-24T05:42:15;8.77;;;6.20;;
75537;SDS011;64121;48.666;8.114;2023-07-24T05:44:40;8.98;;;6.13;;
75537;SDS011;64121;48.666;8.114;2023-07-24T05:47:05;9.47;;;6.07;;
75537;SDS011;64121;48.666;8.114;2023-07-24T05:49:30;10.20;;;6.03;;
75537;SDS011;64121;48.666;8.114;2023-07-24T05:51:56;10.00;;;6.47;;
75537;SDS011;64121;48.666;8.114;2023-07-24T05:54:21;9.43;;;6.73;;
75537;SDS011;64121;48.666;8.114;2023-07-24T05:56:46;11.33;;;6.37;;
75537;SDS011;64121;48.666;8.114;2023-07-24T05:59:13;9.57;;;6.23;;
75537;SDS011;64121;48.666;8.114;2023-07-24T06:01:38;10.00;;;6.30;;
75537;SDS011;64121;48.666;8.114;2023-07-24T06:04:03;9.73;;;6.20;;
75537;SDS011;64121;48.666;8.114;2023-07-24T06:06:29;9.23;;;6.33;;
75537;SDS011;64121;48.666;8.114;2023-07-24T06:08:54;10.40;;;6.63;;
75537;SDS011;64121;48.666;8.114;2023-07-24T06:11:19;8.77;;;6.00;;
75537;SDS011;64121;48.666;8.114;2023-07-24T06:13:44;11.00;;;5.83;;
75537;SDS011;64121;48.666;8.114;2023-07-24T06:16:11;9.03;;;5.83;;
75537;SDS011;64121;48.666;8.114;2023-07-24T06:18:36;9.68;;;5.75;;
75537;SDS011;64121;48.666;8.114;2023-07-24T06:21:01;9.13;;;5.67;;
75537;SDS011;64121;48.666;8.114;2023-07-24T06:23:26;9.23;;;5.83;;
75537;SDS011;64121;48.666;8.114;2023-07-24T06:25:51;9.93;;;5.97;;
75537;SDS011;64121;48.666;8.114;2023-07-24T06:28:17;9.60;;;6.20;;
75537;SDS011;64121;48.666;8.114;2023-07-24T06:30:42;8.17;;;5.77;;
75537;SDS011;64121;48.666;8.114;2023-07-24T06:33:08;9.57;;;6.73;;
75537;SDS011;64121;48.666;8.114;2023-07-24T06:35:33;9.45;;;6.28;;
75537;SDS011;64121;48.666;8.114;2023-07-24T06:37:59;10.67;;;6.30;;
75537;SDS011;64121;48.666;8.114;2023-07-24T06:40:24;10.93;;;6.47;;
75537;SDS011;64121;48.666;8.114;2023-07-24T06:42:49;9.80;;;6.53;;
75537;SDS011;64121;48.666;8.114;2023-07-24T06:45:14;10.77;;;6.20;;
75537;SDS011;64121;48.666;8.114;2023-07-24T06:47:39;9.67;;;5.70;;
75537;SDS011;64121;48.666;8.114;2023-07-24T06:50:07;8.48;;;5.10;;
75537;SDS011;64121;48.666;8.114;2023-07-24T06:52:32;8.23;;;5.50;;
75537;SDS011;64121;48.666;8.114;2023-07-24T06:54:57;8.57;;;5.30;;
75537;SDS011;64121;48.666;8.114;2023-07-24T06:57:23;9.53;;;5.70;;
75537;SDS011;64121;48.666;8.114;2023-07-24T06:59:48;7.47;;;5.13;;
75537;SDS011;64121;48.666;8.114;2023-07-24T07:02:13;9.17;;;5.87;;
75537;SDS011;64121;48.666;8.114;2023-07-24T07:04:38;8.77;;;5.53;;
75537;SDS011;64121;48.666;8.114;2023-07-24T07:07:05;7.70;;;4.90;;
75537;SDS011;64121;48.666;8.114;2023-07-24T07:09:30;8.63;;;6.05;;
75537;SDS011;64121;48.666;8.114;2023-07-24T07:11:55;9.47;;;6.47;;
75537;SDS011;64121;48.666;8.114;2023-07-24T07:14:20;8.57;;;5.83;;
75537;SDS011;64121;48.666;8.114;2023-07-24T07:16:45;8.63;;;5.37;;
75537;SDS011;64121;48.666;8.114;2023-07-24T07:19:11;9.00;;;5.87;;
75537;SDS011;64121;48.666;8.114;2023-07-24T07:21:36;8.87;;;5.67;;
75537;SDS011;64121;48.666;8.114;2023-07-24T07:24:02;11.47;;;5.93;;
75537;SDS011;64121;48.666;8.114;2023-07-24T07:26:28;9.57;;;5.97;;
75537;SDS011;64121;48.666;8.114;2023-07-24T07:28:53;9.53;;;5.37;;
75537;SDS011;64121;48.666;8.114;2023-07-24T07:31:18;9.63;;;5.37;;
75537;SDS011;64121;48.666;8.114;2023-07-24T07:33:43;8.93;;;4.80;;
75537;SDS011;64121;48.666;8.114;2023-07-24T07:36:08;11.20;;;5.40;;
75537;SDS011;64121;48.666;8.114;2023-07-24T07:38:33;8.17;;;4.93;;
75537;SDS011;64121;48.666;8.114;2023-07-24T07:41:03;9.93;;;5.13;;
75537;SDS011;64121;48.666;8.114;2023-07-24T07:43:28;7.00;;;5.10;;
75537;SDS011;64121;48.666;8.114;2023-07-24T07:45:53;11.07;;;5.50;;
75537;SDS011;64121;48.666;8.114;2023-07-24T07:48:18;7.60;;;4.67;;
75537;SDS011;64121;48.666;8.114;2023-07-24T07:50:44;8.83;;;5.33;;
75537;SDS011;64121;48.666;8.114;2023-07-24T07:53:09;9.63;;;4.83;;
75537;SDS011;64121;48.666;8.114;2023-07-24T07:55:34;7.93;;;5.17;;
75537;SDS011;64121;48.666;8.114;2023-07-24T07:58:00;8.27;;;5.57;;
75537;SDS011;64121;48.666;8.114;2023-07-24T08:00:26;7.78;;;5.13;;
75537;SDS011;64121;48.666;8.114;2023-07-24T08:02:51;7.83;;;4.60;;
75537;SDS011;64121;48.666;8.114;2023-07-24T08:05:16;6.90;;;4.60;;
75537;SDS011;64121;48.666;8.114;2023-07-24T08:07:41;8.23;;;5.33;;
75537;SDS011;64121;48.666;8.114;2023-07-24T08:10:07;7.03;;;5.10;;
75537;SDS011;64121;48.666;8.114;2023-07-24T08:12:32;9.38;;;5.40;;
75537;SDS011;64121;48.666;8.114;2023-07-24T08:14:58;7.30;;;4.70;;
75537;SDS011;64121;48.666;8.114;2023-07-24T08:17:24;8.82;;;5.45;;
75537;SDS011;64121;48.666;8.114;2023-07-24T08:19:49;8.63;;;4.73;;
75537;SDS011;64121;48.666;8.114;2023-07-24T08:22:14;9.37;;;5.30;;
75537;SDS011;64121;48.666;8.114;2023-07-24T08:24:39;7.80;;;5.03;;
75537;SDS011;64121;48.666;8.114;2023-07-24T08:27:05;9.30;;;5.10;;
75537;SDS011;64121;48.666;8.114;2023-07-24T08:29:30;7.95;;;4.50;;
75537;SDS011;64121;48.666;8.114;2023-07-24T08:31:56;8.20;;;5.40;;
75537;SDS011;64121;48.666;8.114;2023-07-24T08:34:21;7.30;;;4.82;;
75537;SDS011;64121;48.666;8.114;2023-07-24T08:36:47;8.13;;;5.33;;
75537;SDS011;64121;48.666;8.114;2023-07-24T08:39:12;8.03;;;5.03;;
75537;SDS011;64121;48.666;8.114;2023-07-24T08:41:37;7.60;;;4.90;;
75537;SDS011;64121;48.666;8.114;2023-07-24T08:44:03;6.20;;;5.03;;
75537;SDS011;64121;48.666;8.114;2023-07-24T08:46:28;6.95;;;4.80;;
75537;SDS011;64121;48.666;8.114;2023-07-24T08:48:55;7.03;;;4.90;;
75537;SDS011;64121;48.666;8.114;2023-07-24T08:51:20;6.88;;;4.72;;
75537;SDS011;64121;48.666;8.114;2023-07-24T08:53:46;8.95;;;5.18;;
75537;SDS011;64121;48.666;8.114;2023-07-24T08:56:12;6.10;;;4.68;;
75537;SDS011;64121;48.666;8.114;2023-07-24T08:58:37;7.57;;;4.93;;
75537;SDS011;64121;48.666;8.114;2023-07-24T09:01:03;8.35;;;5.00;;
75537;SDS011;64121;48.666;8.114;2023-07-24T09:03:28;8.02;;;4.55;;
75537;SDS011;64121;48.666;8.114;2023-07-24T09:05:55;6.90;;;4.80;;
75537;SDS011;64121;48.666;8.114;2023-07-24T09:08:28;6.75;;;5.07;;
75537;SDS011;64121;48.666;8.114;2023-07-24T09:13:18;7.30;;;5.32;;
75537;SDS011;64121;48.666;8.114;2023-07-24T09:15:44;7.40;;;5.10;;
75537;SDS011;64121;48.666;8.114;2023-07-24T09:18:09;8.35;;;5.10;;
75537;SDS011;64121;48.666;8.114;2023-07-24T09:20:38;7.17;;;4.27;;
75537;SDS011;64121;48.666;8.114;2023-07-24T09:23:04;8.68;;;5.18;;
75537;SDS011;64121;48.666;8.114;2023-07-24T09:25:30;8.25;;;4.78;;
75537;SDS011;64121;48.666;8.114;2023-07-24T09:27:55;6.68;;;4.63;;
75537;SDS011;64121;48.666;8.114;2023-07-24T09:30:20;7.63;;;5.40;;
75537;SDS011;64121;48.666;8.114;2023-07-24T09:32:51;8.25;;;4.72;;
75537;SDS011;64121;48.666;8.114;2023-07-24T09:35:17;6.35;;;4.47;;
75537;SDS011;64121;48.666;8.114;2023-07-24T09:37:42;8.95;;;4.90;;
75537;SDS011;64121;48.666;8.114;2023-07-24T09:40:09;7.50;;;4.97;;
75537;SDS011;64121;48.666;8.114;2023-07-24T09:42:35;7.25;;;5.05;;
75537;SDS011;64121;48.666;8.114;2023-07-24T09:45:01;7.35;;;5.10;;
75537;SDS011;64121;48.666;8.114;2023-07-24T09:47:26;6.00;;;4.53;;
75537;SDS011;64121;48.666;8.114;2023-07-24T09:49:51;7.43;;;5.17;;
75537;SDS011;64121;48.666;8.114;2023-07-24T09:52:17;8.25;;;5.07;;
75537;SDS011;64121;48.666;8.114;2023-07-24T09:54:44;9.55;;;4.93;;
75537;SDS011;64121;48.666;8.114;2023-07-24T09:57:15;9.02;;;5.28;;
75537;SDS011;64121;48.666;8.114;2023-07-24T09:59:41;7.97;;;5.40;;
75537;SDS011;64121;48.666;8.114;2023-07-24T10:02:07;8.15;;;5.20;;
75537;SDS011;64121;48.666;8.114;2023-07-24T10:04:35;6.35;;;4.78;;
75537;SDS011;64121;48.666;8.114;2023-07-24T10:07:00;7.47;;;4.75;;
75537;SDS011;64121;48.666;8.114;2023-07-24T10:09:25;6.28;;;4.22;;
75537;SDS011;64121;48.666;8.114;2023-07-24T10:11:51;6.47;;;4.55;;
75537;SDS011;64121;48.666;8.114;2023-07-24T10:14:17;8.30;;;4.90;;
75537;SDS011;64121;48.666;8.114;2023-07-24T10:16:44;7.90;;;4.55;;
75537;SDS011;64121;48.666;8.114;2023-07-24T10:19:13;6.78;;;4.78;;
75537;SDS011;64121;48.666;8.114;2023-07-24T10:21:43;8.55;;;4.35;;
75537;SDS011;64121;48.666;8.114;2023-07-24T10:24:09;8.90;;;5.05;;
75537;SDS011;64121;48.666;8.114;2023-07-24T10:26:34;7.83;;;4.77;;
75537;SDS011;64121;48.666;8.114;2023-07-24T10:29:00;6.87;;;4.63;;
75537;SDS011;64121;48.666;8.114;2023-07-24T10:31:26;7.50;;;4.88;;
75537;SDS011;64121;48.666;8.114;2023-07-24T10:33:52;7.07;;;4.97;;
75537;SDS011;64121;48.666;8.114;2023-07-24T10:36:17;7.68;;;4.70;;
75537;SDS011;64121;48.666;8.114;2023-07-24T10:38:43;9.38;;;4.57;;
75537;SDS011;64121;48.666;8.114;2023-07-24T10:41:09;7.20;;;4.82;;
75537;SDS011;64121;48.666;8.114;2023-07-24T10:43:41;8.95;;;5.22;;
75537;SDS011;64121;48.666;8.114;2023-07-24T10:46:06;9.30;;;5.18;;
75537;SDS011;64121;48.666;8.114;2023-07-24T10:48:33;7.57;;;4.77;;
75537;SDS011;64121;48.666;8.114;2023-07-24T10:50:58;8.75;;;5.70;;
75537;SDS011;64121;48.666;8.114;2023-07-24T10:53:23;8.07;;;4.60;;
75537;SDS011;64121;48.666;8.114;2023-07-24T10:55:50;7.50;;;4.77;;
75537;SDS011;64121;48.666;8.114;2023-07-24T10:58:16;8.55;;;5.25;;
75537;SDS011;64121;48.666;8.114;2023-07-24T11:00:42;7.80;;;5.15;;
75537;SDS011;64121;48.666;8.114;2023-07-24T11:03:08;7.00;;;5.05;;
75537;SDS011;64121;48.666;8.114;2023-07-24T11:05:35;8.48;;;4.75;;
75537;SDS011;64121;48.666;8.114;2023-07-24T11:08:00;7.00;;;4.97;;
75537;SDS011;64121;48.666;8.114;2023-07-24T11:10:25;7.23;;;4.43;;
75537;SDS011;64121;48.666;8.114;2023-07-24T11:12:50;8.17;;;4.47;;
75537;SDS011;64121;48.666;8.114;2023-07-24T11:15:15;7.70;;;4.40;;
75537;SDS011;64121;48.666;8.114;2023-07-24T11:17:41;5.27;;;3.67;;
75537;SDS011;64121;48.666;8.114;2023-07-24T11:20:07;6.78;;;4.25;;
75537;SDS011;64121;48.666;8.114;2023-07-24T11:22:34;6.60;;;4.32;;
75537;SDS011;64121;48.666;8.114;2023-07-24T11:24:59;5.95;;;4.13;;
75537;SDS011;64121;48.666;8.114;2023-07-24T11:27:25;6.50;;;4.40;;
75537;SDS011;64121;48.666;8.114;2023-07-24T11:29:50;7.10;;;4.63;;
75537;SDS011;64121;48.666;8.114;2023-07-24T11:32:17;6.47;;;4.17;;
75537;SDS011;64121;48.666;8.114;2023-07-24T11:34:42;6.82;;;4.28;;
75537;SDS011;64121;48.666;8.114;2023-07-24T11:37:07;6.90;;;4.80;;
75537;SDS011;64121;48.666;8.114;2023-07-24T11:39:34;5.90;;;4.23;;
75537;SDS011;64121;48.666;8.114;2023-07-24T11:41:59;6.80;;;4.43;;
75537;SDS011;64121;48.666;8.114;2023-07-24T11:44:26;5.28;;;4.10;;
75537;SDS011;64121;48.666;8.114;2023-07-24T11:46:51;5.28;;;3.65;;
75537;SDS011;64121;48.666;8.114;2023-07-24T11:49:16;6.83;;;4.60;;
75537;SDS011;64121;48.666;8.114;2023-07-24T11:51:41;6.13;;;4.00;;
75537;SDS011;64121;48.666;8.114;2023-07-24T11:54:07;6.10;;;3.97;;
75537;SDS011;64121;48.666;8.114;2023-07-24T11:56:33;6.18;;;4.28;;
75537;SDS011;64121;48.666;8.114;2023-07-24T11:59:08;6.97;;;3.97;;
75537;SDS011;64121;48.666;8.114;2023-07-24T12:01:33;6.80;;;3.78;;
75537;SDS011;64121;48.666;8.114;2023-07-24T12:03:58;5.03;;;3.97;;
75537;SDS011;64121;48.666;8.114;2023-07-24T12:06:23;5.57;;;3.67;;
75537;SDS011;64121;48.666;8.114;2023-07-24T12:08:49;6.83;;;4.33;;
75537;SDS011;64121;48.666;8.114;2023-07-24T12:11:17;5.65;;;4.00;;
75537;SDS011;64121;48.666;8.114;2023-07-24T12:13:44;8.13;;;3.97;;
75537;SDS011;64121;48.666;8.114;2023-07-24T12:16:09;6.60;;;4.25;;
75537;SDS011;64121;48.666;8.114;2023-07-24T12:18:34;7.47;;;4.03;;
75537;SDS011;64121;48.666;8.114;2023-07-24T12:20:59;5.27;;;3.60;;
75537;SDS011;64121;48.666;8.114;2023-07-24T12:23:25;6.07;;;3.93;;
75537;SDS011;64121;48.666;8.114;2023-07-24T12:25:50;5.80;;;3.67;;
75537;SDS011;64121;48.666;8.114;2023-07-24T12:28:15;6.40;;;4.03;;
75537;SDS011;64121;48.666;8.114;2023-07-24T12:30:42;6.17;;;3.70;;
75537;SDS011;64121;48.666;8.114;2023-07-24T12:33:07;5.60;;;4.05;;
75537;SDS011;64121;48.666;8.114;2023-07-24T12:35:32;6.80;;;4.13;;
75537;SDS011;64121;48.666;8.114;2023-07-24T12:37:57;7.17;;;4.47;;
75537;SDS011;64121;48.666;8.114;2023-07-24T12:40:23;5.50;;;3.53;;
75537;SDS011;64121;48.666;8.114;2023-07-24T12:42:48;5.82;;;3.83;;
75537;SDS011;64121;48.666;8.114;2023-07-24T12:45:13;6.43;;;4.33;;
75537;SDS011;64121;48.666;8.114;2023-07-24T12:47:39;7.17;;;4.40;;
75537;SDS011;64121;48.666;8.114;2023-07-24T12:50:05;6.78;;;4.43;;
75537;SDS011;64121;48.666;8.114;2023-07-24T12:52:30;5.90;;;4.00;;
75537;SDS011;64121;48.666;8.114;2023-07-24T12:54:55;6.27;;;4.23;;
75537;SDS011;64121;48.666;8.114;2023-07-24T12:57:20;6.40;;;3.33;;
75537;SDS011;64121;48.666;8.114;2023-07-24T12:59:46;7.27;;;4.33;;
75537;SDS011;64121;48.666;8.114;2023-07-24T13:02:11;5.73;;;3.90;;
75537;SDS011;64121;48.666;8.114;2023-07-24T13:04:37;7.30;;;4.20;;
75537;SDS011;64121;48.666;8.114;2023-07-24T13:07:03;6.55;;;3.95;;
75537;SDS011;64121;48.666;8.114;2023-07-24T13:09:28;6.93;;;4.25;;
75537;SDS011;64121;48.666;8.114;2023-07-24T13:11:53;5.23;;;3.77;;
75537;SDS011;64121;48.666;8.114;2023-07-24T13:14:18;6.30;;;3.90;;
75537;SDS011;64121;48.666;8.114;2023-07-24T13:16:43;6.60;;;4.27;;
75537;SDS011;64121;48.666;8.114;2023-07-24T13:19:09;6.83;;;4.50;;
75537;SDS011;64121;48.666;8.114;2023-07-24T13:21:35;5.77;;;3.83;;
75537;SDS011;64121;48.666;8.114;2023-07-24T13:24:00;6.70;;;4.20;;
75537;SDS011;64121;48.666;8.114;2023-07-24T13:26:25;5.73;;;4.23;;
75537;SDS011;64121;48.666;8.114;2023-07-24T13:28:51;8.67;;;4.70;;
75537;SDS011;64121;48.666;8.114;2023-07-24T13:31:16;7.30;;;4.37;;
75537;SDS011;64121;48.666;8.114;2023-07-24T13:33:42;7.35;;;4.75;;
75537;SDS011;64121;48.666;8.114;2023-07-24T13:36:07;6.65;;;4.30;;
75537;SDS011;64121;48.666;8.114;2023-07-24T13:38:34;7.33;;;4.40;;
75537;SDS011;64121;48.666;8.114;2023-07-24T13:40:59;7.28;;;4.43;;
75537;SDS011;64121;48.666;8.114;2023-07-24T13:43:24;6.43;;;4.17;;
75537;SDS011;64121;48.666;8.114;2023-07-24T13:45:50;6.25;;;4.20;;
75537;SDS011;64121;48.666;8.114;2023-07-24T13:48:15;5.03;;;3.90;;
75537;SDS011;64121;48.666;8.114;2023-07-24T13:50:40;5.63;;;4.07;;
75537;SDS011;64121;48.666;8.114;2023-07-24T13:53:05;5.33;;;3.60;;
75537;SDS011;64121;48.666;8.114;2023-07-24T13:55:32;5.30;;;3.63;;
75537;SDS011;64121;48.666;8.114;2023-07-24T13:57:57;6.10;;;3.55;;
75537;SDS011;64121;48.666;8.114;2023-07-24T14:00:22;5.73;;;3.93;;
75537;SDS011;64121;48.666;8.114;2023-07-24T14:02:47;6.13;;;4.07;;
75537;SDS011;64121;48.666;8.114;2023-07-24T14:05:12;5.23;;;3.50;;
75537;SDS011;64121;48.666;8.114;2023-07-24T14:07:38;5.60;;;4.27;;
75537;SDS011;64121;48.666;8.114;2023-07-24T14:10:03;6.40;;;4.43;;
75537;SDS011;64121;48.666;8.114;2023-07-24T14:12:30;5.82;;;3.85;;
75537;SDS011;64121;48.666;8.114;2023-07-24T14:14:55;6.55;;;4.00;;
75537;SDS011;64121;48.666;8.114;2023-07-24T14:17:20;5.97;;;3.33;;
75537;SDS011;64121;48.666;8.114;2023-07-24T14:19:45;5.57;;;3.57;;
75537;SDS011;64121;48.666;8.114;2023-07-24T14:22:10;5.23;;;4.03;;
75537;SDS011;64121;48.666;8.114;2023-07-24T14:24:35;5.70;;;3.90;;
75537;SDS011;64121;48.666;8.114;2023-07-24T14:27:00;5.33;;;3.40;;
75537;SDS011;64121;48.666;8.114;2023-07-24T14:29:27;5.30;;;3.17;;
75537;SDS011;64121;48.666;8.114;2023-07-24T14:31:52;4.72;;;3.25;;
75537;SDS011;64121;48.666;8.114;2023-07-24T14:34:17;5.47;;;3.70;;
75537;SDS011;64121;48.666;8.114;2023-07-24T14:36:42;5.33;;;3.47;;